createdAt,value
2019-01-15T00:00:36.255Z,0.00
2019-01-15T00:03:02.681Z,0.00
2019-01-15T00:05:28.683Z,0.07
2019-01-15T00:07:54.842Z,0.13
2019-01-15T00:10:21.260Z,0.10
2019-01-15T00:12:47.288Z,0.13
2019-01-15T00:15:13.422Z,0.00
2019-01-15T00:17:39.434Z,0.00
2019-01-15T00:20:08.958Z,0.00
2019-01-15T00:22:34.855Z,0.10
2019-01-15T00:25:01.058Z,0.10
2019-01-15T00:27:27.202Z,0.10
2019-01-15T00:29:53.101Z,0.20
2019-01-15T00:32:19.290Z,0.10
2019-01-15T00:34:45.324Z,0.00
2019-01-15T00:37:11.468Z,0.00
2019-01-15T00:39:37.473Z,0.07
2019-01-15T00:42:03.615Z,0.00
2019-01-15T00:44:29.572Z,0.00
2019-01-15T00:46:55.659Z,0.03
2019-01-15T00:49:21.721Z,0.00
2019-01-15T00:51:47.733Z,0.00
2019-01-15T00:54:13.955Z,0.10
2019-01-15T00:56:40.011Z,0.10
2019-01-15T00:59:06.051Z,0.10
2019-01-15T01:01:32.388Z,0.10
2019-01-15T01:03:58.357Z,0.00
2019-01-15T01:06:24.656Z,0.10
2019-01-15T01:08:50.805Z,0.00
2019-01-15T01:11:17.059Z,0.20
2019-01-15T01:13:43.065Z,0.10
2019-01-15T01:16:09.537Z,0.03
2019-01-15T01:18:35.582Z,0.07
2019-01-15T01:21:01.736Z,0.10
2019-01-15T01:23:27.912Z,0.10
2019-01-15T01:25:53.868Z,0.23
2019-01-15T01:28:19.923Z,0.20
2019-01-15T01:30:46.184Z,0.10
2019-01-15T01:33:12.224Z,0.00
2019-01-15T01:35:38.178Z,0.10
2019-01-15T01:38:04.563Z,0.20
2019-01-15T01:40:30.697Z,0.20
2019-01-15T01:42:56.711Z,0.10
2019-01-15T01:45:23.094Z,0.10
2019-01-15T01:47:49.138Z,0.20
2019-01-15T01:50:15.178Z,0.10
2019-01-15T01:52:42.159Z,0.03
2019-01-15T01:55:10.278Z,0.10
2019-01-15T01:57:36.321Z,0.00
2019-01-15T02:00:06.091Z,0.10
2019-01-15T02:02:32.204Z,0.00
2019-01-15T02:04:58.235Z,0.20
2019-01-15T02:07:24.372Z,0.23
2019-01-15T02:09:50.407Z,0.10
2019-01-15T02:12:16.441Z,0.20
2019-01-15T02:14:42.757Z,0.23
2019-01-15T02:17:08.678Z,0.10
2019-01-15T02:19:34.620Z,0.10
2019-01-15T02:22:00.904Z,0.10
2019-01-15T02:24:27.226Z,0.10
2019-01-15T02:26:53.373Z,0.00
2019-01-15T02:29:19.563Z,0.00
2019-01-15T02:31:45.659Z,0.20
2019-01-15T02:34:11.675Z,0.07
2019-01-15T02:36:37.982Z,0.10
2019-01-15T02:39:05.531Z,0.10
2019-01-15T02:41:31.604Z,0.10
2019-01-15T02:43:57.896Z,0.20
2019-01-15T02:46:23.914Z,0.30
2019-01-15T02:48:49.845Z,0.10
2019-01-15T02:51:19.027Z,0.30
2019-01-15T02:53:44.920Z,0.10
2019-01-15T02:56:10.867Z,0.10
2019-01-15T02:58:37.135Z,0.10
2019-01-15T03:01:03.444Z,0.10
2019-01-15T03:03:29.398Z,0.17
2019-01-15T03:05:55.388Z,0.20
2019-01-15T03:08:21.339Z,0.17
2019-01-15T03:10:47.542Z,0.20
2019-01-15T03:13:13.977Z,0.00
2019-01-15T03:15:40.000Z,0.10
2019-01-15T03:18:06.127Z,0.20
2019-01-15T03:20:32.390Z,0.20
2019-01-15T03:22:58.440Z,0.10
2019-01-15T03:25:24.553Z,0.10
2019-01-15T03:27:50.873Z,0.10
2019-01-15T03:30:19.902Z,0.10
2019-01-15T03:32:46.050Z,0.10
2019-01-15T03:35:12.382Z,0.10
2019-01-15T03:37:38.810Z,0.10
2019-01-15T03:40:08.508Z,0.20
2019-01-15T03:42:34.684Z,0.30
2019-01-15T03:45:00.834Z,0.10
2019-01-15T03:47:26.846Z,0.20
2019-01-15T03:49:53.130Z,0.10
2019-01-15T03:52:19.063Z,0.10
2019-01-15T03:54:45.049Z,0.10
2019-01-15T03:57:11.147Z,0.20
2019-01-15T03:59:37.131Z,0.10
2019-01-15T04:02:03.275Z,0.10
2019-01-15T04:04:29.453Z,0.10
2019-01-15T04:06:55.392Z,0.20
2019-01-15T04:09:21.393Z,0.10
2019-01-15T04:11:47.584Z,0.10
2019-01-15T04:14:13.519Z,0.10
2019-01-15T04:16:39.545Z,0.00
2019-01-15T04:19:05.948Z,0.00
2019-01-15T04:21:31.846Z,0.10
2019-01-15T04:23:57.758Z,0.00
2019-01-15T04:26:24.087Z,0.10
2019-01-15T04:28:49.994Z,0.03
2019-01-15T04:31:15.927Z,0.13
2019-01-15T04:33:42.127Z,0.13
2019-01-15T04:36:08.025Z,0.10
2019-01-15T04:38:33.943Z,0.10
2019-01-15T04:41:00.355Z,0.10
2019-01-15T04:43:26.379Z,0.03
2019-01-15T04:45:52.265Z,0.20
2019-01-15T04:48:18.436Z,0.00
2019-01-15T04:50:44.364Z,0.00
2019-01-15T04:53:10.284Z,0.00
2019-01-15T04:55:36.572Z,0.00
2019-01-15T04:58:02.808Z,0.17
2019-01-15T05:00:28.947Z,0.10
2019-01-15T05:02:55.924Z,0.10
2019-01-15T05:05:22.059Z,0.13
2019-01-15T05:07:47.995Z,0.20
2019-01-15T05:10:15.251Z,0.03
2019-01-15T05:12:41.286Z,0.00
2019-01-15T05:15:13.265Z,0.00
2019-01-15T05:17:39.442Z,0.00
2019-01-15T05:20:10.957Z,0.20
2019-01-15T05:22:37.011Z,0.07
2019-01-15T05:25:06.611Z,0.10
2019-01-15T05:27:32.705Z,0.00
2019-01-15T05:29:58.662Z,0.10
2019-01-15T05:32:24.754Z,0.07
2019-01-15T05:34:50.833Z,0.47
2019-01-15T05:37:16.838Z,0.60
2019-01-15T05:39:42.874Z,0.20
2019-01-15T05:42:09.048Z,0.30
2019-01-15T05:44:35.094Z,0.20
2019-01-15T05:47:01.199Z,0.20
2019-01-15T05:49:27.189Z,0.00
2019-01-15T05:51:53.217Z,0.20
2019-01-15T05:54:19.309Z,0.20
2019-01-15T05:56:45.369Z,0.13
2019-01-15T05:59:11.574Z,0.10
2019-01-15T06:01:37.780Z,0.20
2019-01-15T06:04:03.908Z,0.03
2019-01-15T06:06:29.978Z,0.10
2019-01-15T06:08:56.095Z,0.00
2019-01-15T06:11:22.333Z,0.10
2019-01-15T06:13:48.355Z,0.17
2019-01-15T06:16:14.753Z,0.10
2019-01-15T06:18:40.691Z,0.13
2019-01-15T06:21:06.726Z,0.10
2019-01-15T06:23:32.928Z,0.17
2019-01-15T06:25:58.950Z,0.10
2019-01-15T06:28:25.566Z,0.10
2019-01-15T06:30:52.454Z,0.20
2019-01-15T06:33:18.457Z,0.20
2019-01-15T06:35:44.623Z,0.20
2019-01-15T06:38:10.806Z,0.00
2019-01-15T06:40:36.883Z,0.23
2019-01-15T06:43:03.893Z,0.17
2019-01-15T06:45:31.101Z,0.20
2019-01-15T06:47:57.348Z,0.10
2019-01-15T06:50:23.491Z,0.20
2019-01-15T06:52:49.746Z,0.20
2019-01-15T06:55:19.955Z,0.20
2019-01-15T06:57:46.210Z,0.10
2019-01-15T07:00:26.195Z,0.10
2019-01-15T07:02:52.347Z,0.10
2019-01-15T07:05:18.358Z,0.10
2019-01-15T07:07:44.618Z,0.30
2019-01-15T07:10:14.364Z,0.10
2019-01-15T07:12:40.533Z,0.20
2019-01-15T07:15:06.833Z,0.10
2019-01-15T07:17:32.960Z,0.20
2019-01-15T07:19:59.103Z,0.10
2019-01-15T07:22:25.613Z,0.10
2019-01-15T07:24:51.737Z,0.20
2019-01-15T07:27:17.731Z,0.10
2019-01-15T07:29:44.089Z,0.10
2019-01-15T07:32:10.111Z,0.10
2019-01-15T07:34:36.129Z,0.00
2019-01-15T07:37:02.211Z,0.10
2019-01-15T07:39:28.258Z,0.20
2019-01-15T07:41:54.183Z,0.10
2019-01-15T07:44:20.644Z,0.10
2019-01-15T07:46:46.649Z,0.00
2019-01-15T07:49:12.594Z,0.00
2019-01-15T07:51:38.816Z,0.10
2019-01-15T07:54:04.950Z,0.00
2019-01-15T07:56:30.932Z,0.10
2019-01-15T07:58:57.028Z,0.10
2019-01-15T08:01:23.443Z,0.10
2019-01-15T08:03:49.368Z,0.10
2019-01-15T08:06:15.612Z,0.20
2019-01-15T08:08:41.665Z,0.13
2019-01-15T08:11:07.790Z,0.00
2019-01-15T08:13:34.009Z,0.00
2019-01-15T08:16:00.062Z,0.00
2019-01-15T08:18:26.108Z,0.10
2019-01-15T08:20:52.550Z,0.10
2019-01-15T08:23:18.569Z,0.10
2019-01-15T08:25:44.523Z,0.10
2019-01-15T08:28:10.910Z,0.03
2019-01-15T08:30:37.054Z,0.00
2019-01-15T08:33:03.398Z,0.00
2019-01-15T08:35:29.713Z,0.00
2019-01-15T08:37:55.887Z,0.13
2019-01-15T08:40:22.019Z,0.20
2019-01-15T08:42:48.146Z,0.10
2019-01-15T08:45:15.671Z,0.00
2019-01-15T08:47:50.280Z,0.07
2019-01-15T08:50:25.040Z,0.10
2019-01-15T08:52:51.348Z,0.10
2019-01-15T08:55:17.416Z,0.10
2019-01-15T08:57:43.535Z,0.10
2019-01-15T09:00:12.205Z,0.10
2019-01-15T09:02:38.147Z,0.03
2019-01-15T09:05:05.057Z,0.10
2019-01-15T09:07:31.344Z,0.00
2019-01-15T09:09:57.279Z,0.00
2019-01-15T09:12:23.317Z,0.10
2019-01-15T09:14:49.711Z,0.00
2019-01-15T09:17:15.766Z,0.00
2019-01-15T09:19:41.677Z,0.00
2019-01-15T09:22:07.983Z,0.10
2019-01-15T09:24:33.980Z,0.00
2019-01-15T09:27:00.113Z,0.00
2019-01-15T09:29:26.362Z,0.10
2019-01-15T09:31:52.464Z,0.10
2019-01-15T09:34:18.382Z,0.00
2019-01-15T09:36:44.553Z,0.00
2019-01-15T09:39:10.580Z,0.10
2019-01-15T09:41:37.518Z,0.10
2019-01-15T09:44:03.696Z,0.10
2019-01-15T09:46:29.758Z,0.20
2019-01-15T09:48:55.700Z,0.10
2019-01-15T09:51:21.987Z,0.10
2019-01-15T09:53:47.913Z,0.13
2019-01-15T09:56:14.046Z,0.20
2019-01-15T09:58:40.330Z,0.10
2019-01-15T10:01:06.495Z,0.03
2019-01-15T10:03:32.485Z,0.00
2019-01-15T10:05:58.861Z,0.10
2019-01-15T10:08:24.978Z,0.20
2019-01-15T10:10:51.092Z,0.10
2019-01-15T10:13:17.192Z,0.10
2019-01-15T10:15:43.310Z,0.23
2019-01-15T10:18:09.358Z,0.10
2019-01-15T10:20:35.619Z,0.10
2019-01-15T10:23:01.763Z,0.10
2019-01-15T10:25:28.092Z,0.00
2019-01-15T10:27:55.093Z,0.10
2019-01-15T10:30:35.885Z,0.10
2019-01-15T10:33:05.691Z,0.10
2019-01-15T10:35:52.428Z,0.10
2019-01-15T10:38:19.193Z,0.10
2019-01-15T10:40:45.226Z,0.13
2019-01-15T10:43:11.152Z,0.00
2019-01-15T10:45:37.319Z,0.20
2019-01-15T10:48:03.459Z,0.07
2019-01-15T10:50:29.588Z,0.10
2019-01-15T10:52:55.669Z,0.20
2019-01-15T10:55:21.619Z,0.10
2019-01-15T10:57:47.545Z,0.27
2019-01-15T11:00:14.037Z,0.10
2019-01-15T11:02:40.064Z,0.20
2019-01-15T11:05:09.219Z,0.20
2019-01-15T11:07:35.718Z,0.10
2019-01-15T11:10:03.951Z,0.20
2019-01-15T11:12:29.882Z,0.10
2019-01-15T11:14:56.484Z,0.00
2019-01-15T11:17:22.465Z,0.20
2019-01-15T11:19:48.480Z,0.10
2019-01-15T11:22:14.695Z,0.03
2019-01-15T11:24:40.628Z,0.00
2019-01-15T11:27:06.778Z,0.10
2019-01-15T11:29:32.884Z,0.10
2019-01-15T11:31:58.924Z,0.10
2019-01-15T11:34:24.961Z,0.20
2019-01-15T11:36:51.412Z,0.40
2019-01-15T11:39:17.450Z,0.00
2019-01-15T11:41:43.402Z,0.10
2019-01-15T11:44:09.667Z,0.10
2019-01-15T11:46:35.598Z,0.10
2019-01-15T11:49:01.993Z,0.10
2019-01-15T11:51:29.334Z,0.03
2019-01-15T11:53:55.343Z,0.10
2019-01-15T11:56:21.474Z,0.10
2019-01-15T11:58:48.374Z,0.10
2019-01-15T12:01:16.301Z,0.10
2019-01-15T12:03:59.362Z,0.10
2019-01-15T12:06:43.946Z,0.13
2019-01-15T12:09:18.273Z,0.10
2019-01-15T12:12:04.235Z,0.00
2019-01-15T12:14:41.244Z,0.10
2019-01-15T12:17:12.196Z,0.10
2019-01-15T12:19:46.035Z,0.00
2019-01-15T12:22:30.463Z,0.23
2019-01-15T12:24:58.654Z,0.10
2019-01-15T12:27:29.482Z,0.10
2019-01-15T12:30:13.920Z,0.00
2019-01-15T12:32:58.428Z,0.10
2019-01-15T12:35:38.092Z,0.10
2019-01-15T12:38:17.868Z,0.10
2019-01-15T12:40:45.946Z,0.10
2019-01-15T12:43:25.834Z,0.13
2019-01-15T12:45:59.609Z,0.27
2019-01-15T12:48:44.143Z,0.20
2019-01-15T12:51:17.931Z,0.10
2019-01-15T12:53:48.751Z,0.20
2019-01-15T12:56:33.489Z,0.10
2019-01-15T12:59:04.314Z,0.10
2019-01-15T13:01:44.240Z,0.10
2019-01-15T13:04:18.104Z,0.40
2019-01-15T13:06:58.320Z,0.10
2019-01-15T13:09:42.549Z,0.20
2019-01-15T13:12:22.325Z,0.40
2019-01-15T13:15:06.750Z,0.30
2019-01-15T13:17:40.806Z,0.47
2019-01-15T13:20:25.350Z,0.30
2019-01-15T13:22:53.584Z,0.40
2019-01-15T13:25:24.260Z,0.50
2019-01-15T13:28:04.187Z,0.50
2019-01-15T13:30:48.181Z,0.33
2019-01-15T13:33:16.205Z,0.50
2019-01-15T13:35:49.907Z,0.30
2019-01-15T13:38:29.960Z,0.40
2019-01-15T13:41:03.906Z,0.37
2019-01-15T13:43:48.370Z,0.23
2019-01-15T13:46:22.229Z,0.10
2019-01-15T13:49:06.915Z,0.30
2019-01-15T13:51:37.778Z,0.40
2019-01-15T13:54:22.446Z,0.73
2019-01-15T13:56:50.355Z,0.20
2019-01-15T13:59:27.462Z,0.30
2019-01-15T14:01:58.006Z,0.20
2019-01-15T14:04:32.203Z,0.17
2019-01-15T14:07:11.914Z,0.13
2019-01-15T14:09:40.066Z,0.20
2019-01-15T14:12:26.054Z,0.20
2019-01-15T14:15:10.827Z,0.10
2019-01-15T14:17:55.297Z,0.10
2019-01-15T14:20:35.142Z,0.27
2019-01-15T14:23:03.068Z,0.10
2019-01-15T14:25:47.935Z,0.33
2019-01-15T14:28:18.728Z,0.07
2019-01-15T14:31:05.556Z,0.40
2019-01-15T14:33:51.307Z,0.20
2019-01-15T14:36:28.448Z,0.30
2019-01-15T14:39:01.986Z,0.30
2019-01-15T14:41:30.176Z,0.23
2019-01-15T14:43:58.409Z,0.40
2019-01-15T14:46:32.293Z,0.40
2019-01-15T14:49:08.939Z,0.20
2019-01-15T14:51:42.830Z,0.40
2019-01-15T14:54:13.773Z,0.40
2019-01-15T14:56:41.834Z,0.50
2019-01-15T14:59:18.634Z,0.70
2019-01-15T15:01:52.331Z,0.30
2019-01-15T15:04:20.372Z,0.93
2019-01-15T15:06:48.322Z,0.47
2019-01-15T15:09:19.209Z,0.30
2019-01-15T15:11:47.321Z,0.33
2019-01-15T15:14:15.371Z,0.33
2019-01-15T15:16:49.066Z,0.40
2019-01-15T15:19:33.283Z,0.33
2019-01-15T15:22:17.787Z,0.70
2019-01-15T15:25:02.307Z,0.60
2019-01-15T15:27:48.377Z,0.50
2019-01-15T15:30:20.167Z,0.60
2019-01-15T15:33:04.481Z,1.00
2019-01-15T15:35:32.423Z,0.57
2019-01-15T15:38:06.185Z,0.87
2019-01-15T15:40:36.992Z,1.20
2019-01-15T15:43:11.208Z,0.90
2019-01-15T15:45:51.139Z,0.80
2019-01-15T15:48:25.295Z,0.70
2019-01-15T15:50:55.840Z,0.80
2019-01-15T15:53:38.836Z,0.50
2019-01-15T15:56:12.746Z,0.30
2019-01-15T15:58:52.866Z,0.60
2019-01-15T16:01:37.498Z,0.70
2019-01-15T16:04:21.853Z,0.50
2019-01-15T16:06:49.667Z,0.50
2019-01-15T16:09:17.499Z,0.50
2019-01-15T16:11:48.309Z,1.07
2019-01-15T16:14:31.291Z,0.90
2019-01-15T16:17:02.377Z,0.60
2019-01-15T16:19:30.286Z,0.60
2019-01-15T16:22:03.941Z,0.77
2019-01-15T16:24:34.924Z,0.47
2019-01-15T16:27:17.717Z,0.80
2019-01-15T16:29:45.647Z,0.70
2019-01-15T16:32:29.965Z,0.63
2019-01-15T16:35:03.905Z,0.53
2019-01-15T16:37:31.996Z,0.77
2019-01-15T16:40:05.553Z,0.97
2019-01-15T16:42:48.680Z,0.70
2019-01-15T16:45:19.804Z,0.60
2019-01-15T16:47:50.479Z,0.60
2019-01-15T16:50:27.201Z,0.60
2019-01-15T16:53:13.326Z,0.30
2019-01-15T16:55:57.501Z,0.40
2019-01-15T16:58:31.273Z,0.47
2019-01-15T17:01:05.253Z,0.40
2019-01-15T17:03:49.635Z,0.53
2019-01-15T17:06:23.475Z,0.40
2019-01-15T17:09:00.239Z,0.60
2019-01-15T17:11:28.188Z,0.33
2019-01-15T17:14:05.178Z,0.30
2019-01-15T17:16:39.134Z,0.40
2019-01-15T17:19:10.180Z,0.30
2019-01-15T17:21:38.205Z,0.33
2019-01-15T17:24:06.173Z,0.20
2019-01-15T17:26:37.279Z,0.40
2019-01-15T17:29:10.973Z,0.30
2019-01-15T17:31:42.019Z,0.47
2019-01-15T17:34:12.589Z,0.30
2019-01-15T17:36:40.557Z,0.37
2019-01-15T17:39:25.677Z,0.40
2019-01-15T17:42:11.678Z,0.20
2019-01-15T17:44:45.764Z,0.30
2019-01-15T17:47:13.850Z,0.30
2019-01-15T17:49:41.881Z,0.20
2019-01-15T17:52:24.895Z,0.27
2019-01-15T17:54:52.708Z,0.30
2019-01-15T17:57:26.804Z,0.20
2019-01-15T18:00:11.044Z,0.30
2019-01-15T18:02:57.022Z,0.50
2019-01-15T18:05:25.068Z,0.53
2019-01-15T18:08:08.331Z,0.30
2019-01-15T18:10:36.266Z,0.30
2019-01-15T18:13:10.228Z,0.60
2019-01-15T18:15:55.988Z,0.40
2019-01-15T18:18:23.969Z,0.40
2019-01-15T18:21:03.982Z,0.60
2019-01-15T18:23:48.483Z,0.50
2019-01-15T18:26:22.048Z,0.47
2019-01-15T18:29:02.208Z,0.53
2019-01-15T18:31:32.990Z,0.63
2019-01-15T18:34:00.951Z,0.50
2019-01-15T18:36:46.988Z,0.70
2019-01-15T18:39:30.016Z,0.50
2019-01-15T18:42:12.931Z,0.60
2019-01-15T18:44:58.136Z,0.90
2019-01-15T18:47:37.929Z,2.27
2019-01-15T18:50:08.913Z,2.47
2019-01-15T18:52:53.254Z,1.30
2019-01-15T18:55:29.861Z,1.00
2019-01-15T18:58:03.532Z,0.80
2019-01-15T19:00:34.533Z,1.07
2019-01-15T19:03:08.527Z,0.90
2019-01-15T19:05:42.122Z,0.93
2019-01-15T19:08:10.052Z,0.90
2019-01-15T19:10:43.915Z,0.90
2019-01-15T19:13:14.938Z,0.37
2019-01-15T19:15:43.173Z,0.40
2019-01-15T19:18:17.008Z,0.37
2019-01-15T19:20:44.937Z,0.53
2019-01-15T19:23:15.490Z,0.37
2019-01-15T19:25:49.326Z,0.40
2019-01-15T19:28:23.353Z,0.33
2019-01-15T19:30:54.329Z,0.20
2019-01-15T19:33:25.172Z,0.30
2019-01-15T19:36:02.252Z,0.50
2019-01-15T19:38:45.043Z,0.60
2019-01-15T19:41:12.996Z,0.40
2019-01-15T19:43:58.763Z,0.30
2019-01-15T19:46:29.488Z,0.30
2019-01-15T19:49:03.411Z,0.27
2019-01-15T19:51:47.860Z,0.20
2019-01-15T19:54:15.693Z,0.40
2019-01-15T19:56:55.840Z,0.40
2019-01-15T19:59:29.700Z,0.30
2019-01-15T20:02:03.773Z,0.63
2019-01-15T20:04:37.431Z,1.03
2019-01-15T20:07:05.921Z,1.87
2019-01-15T20:09:39.459Z,1.17
2019-01-15T20:12:24.071Z,0.30
2019-01-15T20:15:01.000Z,0.30
2019-01-15T20:17:31.520Z,0.50
2019-01-15T20:20:05.156Z,0.60
2019-01-15T20:22:49.816Z,0.20
2019-01-15T20:25:17.592Z,0.60
2019-01-15T20:27:48.509Z,0.63
2019-01-15T20:30:31.630Z,0.40
2019-01-15T20:32:59.448Z,0.30
2019-01-15T20:35:27.374Z,0.60
2019-01-15T20:38:10.534Z,0.40
2019-01-15T20:40:54.915Z,0.40
2019-01-15T20:43:23.085Z,0.40
2019-01-15T20:45:53.878Z,0.17
2019-01-15T20:48:24.732Z,0.57
2019-01-15T20:51:03.501Z,0.30
2019-01-15T20:53:31.614Z,0.20
2019-01-15T20:56:02.447Z,0.20
2019-01-15T20:58:30.418Z,0.30
2019-01-15T21:01:01.067Z,0.30
2019-01-15T21:03:44.181Z,0.17
2019-01-15T21:06:12.272Z,0.20
2019-01-15T21:08:40.074Z,0.40
2019-01-15T21:11:23.257Z,0.30
2019-01-15T21:14:03.401Z,0.30
2019-01-15T21:16:40.352Z,0.43
2019-01-15T21:19:23.293Z,0.53
2019-01-15T21:22:07.694Z,0.50
2019-01-15T21:24:41.508Z,0.50
2019-01-15T21:27:12.166Z,0.57
2019-01-15T21:29:48.894Z,0.50
2019-01-15T21:32:16.985Z,0.47
2019-01-15T21:35:01.235Z,0.50
2019-01-15T21:37:31.991Z,0.37
2019-01-15T21:40:18.026Z,0.40
2019-01-15T21:42:46.018Z,0.30
2019-01-15T21:45:17.176Z,0.43
2019-01-15T21:47:45.127Z,0.40
2019-01-15T21:50:19.141Z,0.23
2019-01-15T21:53:03.351Z,0.30
2019-01-15T21:55:31.436Z,0.30
2019-01-15T21:58:05.011Z,0.50
2019-01-15T22:00:33.231Z,0.40
2019-01-15T22:03:01.163Z,0.80
2019-01-15T22:05:31.717Z,0.30
2019-01-15T22:08:16.340Z,0.47
2019-01-15T22:10:50.111Z,0.60
2019-01-15T22:13:23.982Z,0.70
2019-01-15T22:15:57.797Z,0.33
2019-01-15T22:18:26.204Z,0.40
2019-01-15T22:21:02.837Z,0.40
2019-01-15T22:23:36.656Z,0.60
2019-01-15T22:26:10.501Z,0.27
2019-01-15T22:28:50.367Z,0.27
2019-01-15T22:31:27.187Z,0.23
2019-01-15T22:33:57.918Z,0.23
2019-01-15T22:36:25.895Z,0.50
2019-01-15T22:38:56.450Z,0.30
2019-01-15T22:41:24.454Z,0.23
2019-01-15T22:44:09.399Z,0.37
2019-01-15T22:46:40.082Z,0.30
2019-01-15T22:49:11.106Z,0.10
2019-01-15T22:51:42.029Z,0.30
2019-01-15T22:54:21.627Z,0.50
2019-01-15T22:56:49.741Z,0.47
2019-01-15T22:59:17.500Z,0.50
2019-01-15T23:02:00.428Z,0.37
2019-01-15T23:04:34.383Z,0.80
2019-01-15T23:07:19.048Z,0.60
2019-01-15T23:09:49.860Z,0.40
2019-01-15T23:12:17.771Z,0.67
2019-01-15T23:14:57.689Z,0.50
2019-01-15T23:17:25.895Z,0.30
2019-01-15T23:19:59.575Z,0.37
2019-01-15T23:22:27.564Z,0.43
2019-01-15T23:25:04.462Z,0.40
2019-01-15T23:27:32.491Z,0.33
2019-01-15T23:30:03.428Z,0.40
2019-01-15T23:32:34.392Z,0.43
2019-01-15T23:35:10.735Z,0.20
2019-01-15T23:37:50.613Z,0.30
2019-01-15T23:40:18.455Z,0.40
2019-01-15T23:43:01.243Z,0.30
2019-01-15T23:45:29.261Z,0.20
2019-01-15T23:47:57.174Z,0.40
2019-01-15T23:50:43.388Z,0.47
2019-01-15T23:53:14.392Z,0.30
2019-01-15T23:56:02.704Z,0.83
2019-01-15T23:58:30.546Z,0.43
